sensor_id;sensor_type;location;lat;lon;timestamp;pressure;altitude;pressure_sealevel;temperature;humidity
64841;BME280;51307;52.162;7.560;2023-11-19T00:01:53;100329.66;;;8.61;100.00
64841;BME280;51307;52.162;7.560;2023-11-19T00:04:18;100324.38;;;8.69;100.00
64841;BME280;51307;52.162;7.560;2023-11-19T00:06:44;100326.72;;;8.72;100.00
64841;BME280;51307;52.162;7.560;2023-11-19T00:09:10;100325.72;;;8.73;100.00
64841;BME280;51307;52.162;7.560;2023-11-19T00:11:35;100322.88;;;8.75;100.00
64841;BME280;51307;52.162;7.560;2023-11-19T00:14:01;100319.44;;;8.83;100.00
64841;BME280;51307;52.162;7.560;2023-11-19T00:16:26;100316.06;;;8.81;100.00
64841;BME280;51307;52.162;7.560;2023-11-19T00:18:53;100310.91;;;8.79;100.00
64841;BME280;51307;52.162;7.560;2023-11-19T00:21:18;100313.22;;;8.82;100.00
64841;BME280;51307;52.162;7.560;2023-11-19T00:23:44;100308.28;;;8.87;100.00
64841;BME280;51307;52.162;7.560;2023-11-19T00:26:09;100311.94;;;8.86;100.00
64841;BME280;51307;52.162;7.560;2023-11-19T00:28:35;100301.97;;;8.88;100.00
64841;BME280;51307;52.162;7.560;2023-11-19T00:31:04;100300.13;;;8.89;100.00
64841;BME280;51307;52.162;7.560;2023-11-19T00:33:29;100294.13;;;8.87;100.00
64841;BME280;51307;52.162;7.560;2023-11-19T00:35:56;100286.81;;;8.97;100.00
64841;BME280;51307;52.162;7.560;2023-11-19T00:38:21;100279.66;;;8.98;100.00
64841;BME280;51307;52.162;7.560;2023-11-19T00:40:47;100282.63;;;8.95;100.00
64841;BME280;51307;52.162;7.560;2023-11-19T00:43:13;100275.84;;;9.08;100.00
64841;BME280;51307;52.162;7.560;2023-11-19T00:45:38;100280.81;;;9.03;100.00
64841;BME280;51307;52.162;7.560;2023-11-19T00:48:04;100277.34;;;9.03;100.00
64841;BME280;51307;52.162;7.560;2023-11-19T00:50:29;100261.00;;;9.06;100.00
64841;BME280;51307;52.162;7.560;2023-11-19T00:52:56;100262.84;;;9.05;100.00
64841;BME280;51307;52.162;7.560;2023-11-19T00:55:21;100273.84;;;9.11;100.00
64841;BME280;51307;52.162;7.560;2023-11-19T00:57:47;100283.69;;;9.10;100.00
64841;BME280;51307;52.162;7.560;2023-11-19T01:00:13;100277.03;;;9.22;100.00
64841;BME280;51307;52.162;7.560;2023-11-19T01:02:49;100265.84;;;9.19;100.00
64841;BME280;51307;52.162;7.560;2023-11-19T01:05:15;100257.34;;;9.23;100.00
64841;BME280;51307;52.162;7.560;2023-11-19T01:07:40;100261.53;;;9.26;100.00
64841;BME280;51307;52.162;7.560;2023-11-19T01:10:06;100266.34;;;9.22;100.00
64841;BME280;51307;52.162;7.560;2023-11-19T01:12:33;100260.38;;;9.29;100.00
64841;BME280;51307;52.162;7.560;2023-11-19T01:14:59;100255.50;;;9.24;100.00
64841;BME280;51307;52.162;7.560;2023-11-19T01:17:24;100260.84;;;9.32;100.00
64841;BME280;51307;52.162;7.560;2023-11-19T01:19:50;100247.84;;;9.29;100.00
64841;BME280;51307;52.162;7.560;2023-11-19T01:22:16;100252.38;;;9.37;100.00
64841;BME280;51307;52.162;7.560;2023-11-19T01:24:41;100247.38;;;9.42;100.00
64841;BME280;51307;52.162;7.560;2023-11-19T01:27:07;100237.34;;;9.44;100.00
64841;BME280;51307;52.162;7.560;2023-11-19T01:29:33;100228.16;;;9.30;100.00
64841;BME280;51307;52.162;7.560;2023-11-19T01:31:59;100222.81;;;9.47;100.00
64841;BME280;51307;52.162;7.560;2023-11-19T01:34:24;100216.97;;;9.43;100.00
64841;BME280;51307;52.162;7.560;2023-11-19T01:36:50;100226.66;;;9.52;100.00
64841;BME280;51307;52.162;7.560;2023-11-19T01:39:16;100230.00;;;9.46;100.00
64841;BME280;51307;52.162;7.560;2023-11-19T01:41:41;100211.81;;;9.58;100.00
64841;BME280;51307;52.162;7.560;2023-11-19T01:44:07;100202.13;;;9.65;100.00
64841;BME280;51307;52.162;7.560;2023-11-19T01:46:34;100222.00;;;9.54;100.00
64841;BME280;51307;52.162;7.560;2023-11-19T01:49:02;100217.47;;;9.55;100.00
64841;BME280;51307;52.162;7.560;2023-11-19T01:51:28;100219.81;;;9.58;100.00
64841;BME280;51307;52.162;7.560;2023-11-19T01:53:55;100211.97;;;9.73;100.00
64841;BME280;51307;52.162;7.560;2023-11-19T01:56:23;100201.91;;;9.75;100.00
64841;BME280;51307;52.162;7.560;2023-11-19T01:58:50;100194.44;;;9.70;100.00
64841;BME280;51307;52.162;7.560;2023-11-19T02:01:16;100204.59;;;9.75;100.00
64841;BME280;51307;52.162;7.560;2023-11-19T02:03:42;100189.41;;;9.75;100.00
64841;BME280;51307;52.162;7.560;2023-11-19T02:06:08;100183.03;;;9.76;100.00
64841;BME280;51307;52.162;7.560;2023-11-19T02:08:35;100187.03;;;9.81;100.00
64841;BME280;51307;52.162;7.560;2023-11-19T02:11:02;100187.56;;;9.84;100.00
64841;BME280;51307;52.162;7.560;2023-11-19T02:13:28;100190.72;;;9.88;100.00
64841;BME280;51307;52.162;7.560;2023-11-19T02:15:54;100194.03;;;9.90;100.00
64841;BME280;51307;52.162;7.560;2023-11-19T02:18:27;100183.84;;;9.93;100.00
64841;BME280;51307;52.162;7.560;2023-11-19T02:20:57;100199.03;;;10.01;100.00
64841;BME280;51307;52.162;7.560;2023-11-19T02:23:25;100184.69;;;9.94;100.00
64841;BME280;51307;52.162;7.560;2023-11-19T02:26:21;100180.50;;;10.00;100.00
64841;BME280;51307;52.162;7.560;2023-11-19T02:28:52;100183.19;;;10.00;100.00
64841;BME280;51307;52.162;7.560;2023-11-19T02:31:17;100181.66;;;10.05;100.00
64841;BME280;51307;52.162;7.560;2023-11-19T02:33:44;100179.81;;;10.06;100.00
64841;BME280;51307;52.162;7.560;2023-11-19T02:36:10;100173.09;;;10.10;100.00
64841;BME280;51307;52.162;7.560;2023-11-19T02:38:36;100166.09;;;10.09;100.00
64841;BME280;51307;52.162;7.560;2023-11-19T02:41:05;100163.75;;;10.14;100.00
64841;BME280;51307;52.162;7.560;2023-11-19T02:43:32;100166.22;;;10.16;100.00
64841;BME280;51307;52.162;7.560;2023-11-19T02:46:01;100165.91;;;10.19;100.00
64841;BME280;51307;52.162;7.560;2023-11-19T02:48:26;100157.72;;;10.20;100.00
64841;BME280;51307;52.162;7.560;2023-11-19T02:50:52;100156.34;;;10.24;100.00
64841;BME280;51307;52.162;7.560;2023-11-19T02:53:18;100148.47;;;10.31;100.00
64841;BME280;51307;52.162;7.560;2023-11-19T02:55:43;100145.25;;;10.36;100.00
64841;BME280;51307;52.162;7.560;2023-11-19T02:58:14;100140.13;;;10.26;100.00
64841;BME280;51307;52.162;7.560;2023-11-19T03:00:53;100143.63;;;10.35;100.00
64841;BME280;51307;52.162;7.560;2023-11-19T03:03:27;100141.91;;;10.42;100.00
64841;BME280;51307;52.162;7.560;2023-11-19T03:06:07;100132.53;;;10.46;100.00
64841;BME280;51307;52.162;7.560;2023-11-19T03:08:35;100138.41;;;10.41;100.00
64841;BME280;51307;52.162;7.560;2023-11-19T03:11:01;100143.72;;;10.50;100.00
64841;BME280;51307;52.162;7.560;2023-11-19T03:13:26;100134.41;;;10.46;100.00
64841;BME280;51307;52.162;7.560;2023-11-19T03:15:52;100131.00;;;10.52;100.00
64841;BME280;51307;52.162;7.560;2023-11-19T03:18:19;100142.38;;;10.54;100.00
64841;BME280;51307;52.162;7.560;2023-11-19T03:20:46;100141.66;;;10.60;100.00
64841;BME280;51307;52.162;7.560;2023-11-19T03:23:11;100137.47;;;10.57;100.00
64841;BME280;51307;52.162;7.560;2023-11-19T03:25:37;100147.84;;;10.60;100.00
64841;BME280;51307;52.162;7.560;2023-11-19T03:28:03;100141.31;;;10.63;100.00
64841;BME280;51307;52.162;7.560;2023-11-19T03:30:30;100137.97;;;10.61;100.00
64841;BME280;51307;52.162;7.560;2023-11-19T03:32:56;100133.97;;;10.57;100.00
64841;BME280;51307;52.162;7.560;2023-11-19T03:35:23;100139.66;;;10.62;100.00
64841;BME280;51307;52.162;7.560;2023-11-19T03:37:50;100140.00;;;10.59;100.00
64841;BME280;51307;52.162;7.560;2023-11-19T03:40:16;100132.56;;;10.69;100.00
64841;BME280;51307;52.162;7.560;2023-11-19T03:42:41;100140.94;;;10.66;100.00
64841;BME280;51307;52.162;7.560;2023-11-19T03:45:07;100139.28;;;10.65;100.00
64841;BME280;51307;52.162;7.560;2023-11-19T03:47:36;100132.09;;;10.66;100.00
64841;BME280;51307;52.162;7.560;2023-11-19T03:50:02;100145.38;;;10.82;100.00
64841;BME280;51307;52.162;7.560;2023-11-19T03:52:28;100135.72;;;10.73;100.00
64841;BME280;51307;52.162;7.560;2023-11-19T03:54:55;100147.91;;;10.75;100.00
64841;BME280;51307;52.162;7.560;2023-11-19T03:57:21;100147.75;;;10.77;100.00
64841;BME280;51307;52.162;7.560;2023-11-19T03:59:46;100148.69;;;10.84;100.00
64841;BME280;51307;52.162;7.560;2023-11-19T04:02:12;100158.44;;;10.77;100.00
64841;BME280;51307;52.162;7.560;2023-11-19T04:04:37;100136.91;;;10.93;100.00
64841;BME280;51307;52.162;7.560;2023-11-19T04:07:04;100135.38;;;10.76;100.00
64841;BME280;51307;52.162;7.560;2023-11-19T04:09:30;100136.38;;;10.75;100.00
64841;BME280;51307;52.162;7.560;2023-11-19T04:11:56;100131.56;;;10.93;100.00
64841;BME280;51307;52.162;7.560;2023-11-19T04:14:22;100131.63;;;10.85;100.00
64841;BME280;51307;52.162;7.560;2023-11-19T04:16:47;100119.16;;;11.01;100.00
64841;BME280;51307;52.162;7.560;2023-11-19T04:19:13;100132.16;;;10.81;100.00
64841;BME280;51307;52.162;7.560;2023-11-19T04:21:41;100143.06;;;11.02;100.00
64841;BME280;51307;52.162;7.560;2023-11-19T04:24:11;100142.13;;;11.10;100.00
64841;BME280;51307;52.162;7.560;2023-11-19T04:26:44;100137.59;;;10.96;100.00
64841;BME280;51307;52.162;7.560;2023-11-19T04:29:14;100134.41;;;10.92;100.00
64841;BME280;51307;52.162;7.560;2023-11-19T04:31:40;100132.53;;;11.01;100.00
64841;BME280;51307;52.162;7.560;2023-11-19T04:34:06;100133.72;;;10.98;100.00
64841;BME280;51307;52.162;7.560;2023-11-19T04:36:33;100124.38;;;10.94;100.00
64841;BME280;51307;52.162;7.560;2023-11-19T04:38:59;100119.16;;;11.01;100.00
64841;BME280;51307;52.162;7.560;2023-11-19T04:41:25;100117.66;;;10.98;100.00
64841;BME280;51307;52.162;7.560;2023-11-19T04:43:53;100120.03;;;10.93;100.00
64841;BME280;51307;52.162;7.560;2023-11-19T04:46:19;100117.00;;;10.96;100.00
64841;BME280;51307;52.162;7.560;2023-11-19T04:48:44;100122.63;;;11.01;100.00
64841;BME280;51307;52.162;7.560;2023-11-19T04:51:10;100133.16;;;11.03;100.00
64841;BME280;51307;52.162;7.560;2023-11-19T04:53:35;100133.72;;;10.98;100.00
64841;BME280;51307;52.162;7.560;2023-11-19T04:56:07;100142.63;;;10.90;100.00
64841;BME280;51307;52.162;7.560;2023-11-19T04:58:33;100141.13;;;10.88;100.00
64841;BME280;51307;52.162;7.560;2023-11-19T05:00:59;100138.81;;;11.08;100.00
64841;BME280;51307;52.162;7.560;2023-11-19T05:03:24;100145.50;;;10.89;100.00
64841;BME280;51307;52.162;7.560;2023-11-19T05:05:50;100147.44;;;10.95;100.00
64841;BME280;51307;52.162;7.560;2023-11-19T05:08:15;100159.88;;;10.88;100.00
64841;BME280;51307;52.162;7.560;2023-11-19T05:10:41;100151.91;;;11.03;100.00
64841;BME280;51307;52.162;7.560;2023-11-19T05:13:06;100151.41;;;10.76;100.00
64841;BME280;51307;52.162;7.560;2023-11-19T05:15:32;100146.56;;;10.80;100.00
64841;BME280;51307;52.162;7.560;2023-11-19T05:17:58;100144.41;;;10.75;100.00
64841;BME280;51307;52.162;7.560;2023-11-19T05:20:24;100150.59;;;10.75;100.00
64841;BME280;51307;52.162;7.560;2023-11-19T05:22:49;100154.28;;;10.74;100.00
64841;BME280;51307;52.162;7.560;2023-11-19T05:25:16;100145.88;;;10.77;100.00
64841;BME280;51307;52.162;7.560;2023-11-19T05:27:42;100141.78;;;10.67;98.73
64841;BME280;51307;52.162;7.560;2023-11-19T05:30:08;100136.66;;;10.57;99.01
64841;BME280;51307;52.162;7.560;2023-11-19T05:32:35;100145.34;;;10.59;97.54
64841;BME280;51307;52.162;7.560;2023-11-19T05:35:01;100146.53;;;10.56;98.95
64841;BME280;51307;52.162;7.560;2023-11-19T05:37:27;100145.00;;;10.62;98.11
64841;BME280;51307;52.162;7.560;2023-11-19T05:39:52;100156.19;;;10.66;96.32
64841;BME280;51307;52.162;7.560;2023-11-19T05:42:18;100137.53;;;10.81;97.02
64841;BME280;51307;52.162;7.560;2023-11-19T05:44:43;100152.16;;;10.70;95.53
64841;BME280;51307;52.162;7.560;2023-11-19T05:47:09;100152.06;;;10.55;97.41
64841;BME280;51307;52.162;7.560;2023-11-19T05:49:34;100151.75;;;10.50;96.42
64841;BME280;51307;52.162;7.560;2023-11-19T05:52:00;100152.09;;;10.47;96.50
64841;BME280;51307;52.162;7.560;2023-11-19T05:54:28;100153.13;;;10.46;96.85
64841;BME280;51307;52.162;7.560;2023-11-19T05:56:54;100160.38;;;10.60;95.34
64841;BME280;51307;52.162;7.560;2023-11-19T05:59:20;100156.50;;;10.63;94.91
64841;BME280;51307;52.162;7.560;2023-11-19T06:01:45;100163.63;;;10.47;94.97
64841;BME280;51307;52.162;7.560;2023-11-19T06:04:12;100159.88;;;10.65;94.60
64841;BME280;51307;52.162;7.560;2023-11-19T06:06:38;100174.47;;;10.54;94.63
64841;BME280;51307;52.162;7.560;2023-11-19T06:09:04;100166.78;;;10.42;93.32
64841;BME280;51307;52.162;7.560;2023-11-19T06:11:30;100162.66;;;10.71;92.44
64841;BME280;51307;52.162;7.560;2023-11-19T06:13:56;100166.75;;;10.59;92.41
64841;BME280;51307;52.162;7.560;2023-11-19T06:16:22;100171.25;;;10.58;92.58
64841;BME280;51307;52.162;7.560;2023-11-19T06:18:48;100176.97;;;10.55;92.33
64841;BME280;51307;52.162;7.560;2023-11-19T06:21:13;100180.72;;;10.69;92.18
64841;BME280;51307;52.162;7.560;2023-11-19T06:23:39;100185.75;;;10.64;91.69
64841;BME280;51307;52.162;7.560;2023-11-19T06:26:04;100185.03;;;10.47;91.53
64841;BME280;51307;52.162;7.560;2023-11-19T06:28:31;100179.41;;;10.65;90.94
64841;BME280;51307;52.162;7.560;2023-11-19T06:30:57;100179.94;;;10.60;90.65
64841;BME280;51307;52.162;7.560;2023-11-19T06:33:24;100189.63;;;10.62;89.48
64841;BME280;51307;52.162;7.560;2023-11-19T06:35:49;100182.38;;;10.39;90.43
64841;BME280;51307;52.162;7.560;2023-11-19T06:38:15;100182.00;;;10.42;88.89
64841;BME280;51307;52.162;7.560;2023-11-19T06:40:40;100184.69;;;10.50;89.72
64841;BME280;51307;52.162;7.560;2023-11-19T06:43:06;100187.66;;;10.55;89.33
64841;BME280;51307;52.162;7.560;2023-11-19T06:45:33;100194.47;;;10.66;87.97
64841;BME280;51307;52.162;7.560;2023-11-19T06:48:02;100198.84;;;10.59;88.57
64841;BME280;51307;52.162;7.560;2023-11-19T06:50:29;100207.44;;;10.38;89.08
64841;BME280;51307;52.162;7.560;2023-11-19T06:52:55;100200.41;;;10.45;89.85
64841;BME280;51307;52.162;7.560;2023-11-19T06:55:20;100202.50;;;10.66;88.66
64841;BME280;51307;52.162;7.560;2023-11-19T06:57:46;100206.88;;;10.59;88.75
64841;BME280;51307;52.162;7.560;2023-11-19T07:00:11;100201.78;;;10.72;88.53
64841;BME280;51307;52.162;7.560;2023-11-19T07:02:37;100203.53;;;10.57;88.74
64841;BME280;51307;52.162;7.560;2023-11-19T07:05:03;100206.44;;;10.47;88.72
64841;BME280;51307;52.162;7.560;2023-11-19T07:07:31;100200.41;;;10.45;88.38
64841;BME280;51307;52.162;7.560;2023-11-19T07:09:56;100193.50;;;10.59;89.23
64841;BME280;51307;52.162;7.560;2023-11-19T07:12:22;100209.94;;;10.48;88.62
64841;BME280;51307;52.162;7.560;2023-11-19T07:14:47;100204.09;;;10.36;89.32
64841;BME280;51307;52.162;7.560;2023-11-19T07:17:13;100206.75;;;10.36;88.92
64841;BME280;51307;52.162;7.560;2023-11-19T07:19:38;100212.38;;;10.57;87.88
64841;BME280;51307;52.162;7.560;2023-11-19T07:22:05;100209.94;;;10.79;87.69
64841;BME280;51307;52.162;7.560;2023-11-19T07:24:31;100224.81;;;10.42;88.81
64841;BME280;51307;52.162;7.560;2023-11-19T07:26:57;100222.94;;;10.59;88.35
64841;BME280;51307;52.162;7.560;2023-11-19T07:29:22;100215.78;;;10.51;88.75
64841;BME280;51307;52.162;7.560;2023-11-19T07:31:48;100216.91;;;10.57;88.74
64841;BME280;51307;52.162;7.560;2023-11-19T07:34:14;100227.44;;;10.58;88.55
64841;BME280;51307;52.162;7.560;2023-11-19T07:36:40;100225.34;;;10.46;88.18
64841;BME280;51307;52.162;7.560;2023-11-19T07:39:06;100226.28;;;10.53;87.94
64841;BME280;51307;52.162;7.560;2023-11-19T07:41:32;100227.28;;;10.43;88.22
64841;BME280;51307;52.162;7.560;2023-11-19T07:43:58;100228.75;;;10.63;87.66
64841;BME280;51307;52.162;7.560;2023-11-19T07:46:24;100240.94;;;10.65;86.51
64841;BME280;51307;52.162;7.560;2023-11-19T07:48:50;100229.47;;;10.88;86.11
64841;BME280;51307;52.162;7.560;2023-11-19T07:51:16;100240.66;;;10.52;86.27
64841;BME280;51307;52.162;7.560;2023-11-19T07:53:42;100238.31;;;10.57;85.74
64841;BME280;51307;52.162;7.560;2023-11-19T07:56:08;100249.97;;;10.64;85.17
64841;BME280;51307;52.162;7.560;2023-11-19T07:58:34;100246.88;;;10.84;85.51
64841;BME280;51307;52.162;7.560;2023-11-19T08:01:00;100241.63;;;10.67;85.49
64841;BME280;51307;52.162;7.560;2023-11-19T08:03:27;100250.66;;;10.66;86.54
64841;BME280;51307;52.162;7.560;2023-11-19T08:05:55;100261.03;;;10.61;86.40
64841;BME280;51307;52.162;7.560;2023-11-19T08:08:22;100257.31;;;10.70;87.01
64841;BME280;51307;52.162;7.560;2023-11-19T08:10:47;100265.56;;;10.60;85.96
64841;BME280;51307;52.162;7.560;2023-11-19T08:13:13;100262.75;;;10.54;86.14
64841;BME280;51307;52.162;7.560;2023-11-19T08:15:39;100273.69;;;10.75;86.43
64841;BME280;51307;52.162;7.560;2023-11-19T08:18:05;100264.38;;;10.63;86.38
64841;BME280;51307;52.162;7.560;2023-11-19T08:20:32;100278.56;;;10.64;86.55
64841;BME280;51307;52.162;7.560;2023-11-19T08:22:58;100269.75;;;10.55;87.36
64841;BME280;51307;52.162;7.560;2023-11-19T08:25:23;100277.44;;;10.58;86.37
64841;BME280;51307;52.162;7.560;2023-11-19T08:27:49;100272.03;;;10.66;86.07
64841;BME280;51307;52.162;7.560;2023-11-19T08:30:14;100270.00;;;10.68;85.89
64841;BME280;51307;52.162;7.560;2023-11-19T08:32:40;100279.41;;;10.64;86.62
64841;BME280;51307;52.162;7.560;2023-11-19T08:35:06;100284.50;;;10.34;86.79
64841;BME280;51307;52.162;7.560;2023-11-19T08:37:31;100293.84;;;10.47;86.77
64841;BME280;51307;52.162;7.560;2023-11-19T08:39:57;100275.63;;;10.42;86.74
64841;BME280;51307;52.162;7.560;2023-11-19T08:42:23;100288.50;;;10.47;86.45
64841;BME280;51307;52.162;7.560;2023-11-19T08:44:50;100288.28;;;10.65;85.87
64841;BME280;51307;52.162;7.560;2023-11-19T08:47:16;100288.03;;;10.83;85.37
64841;BME280;51307;52.162;7.560;2023-11-19T08:49:44;100293.09;;;10.69;86.00
64841;BME280;51307;52.162;7.560;2023-11-19T08:52:09;100295.59;;;10.71;85.77
64841;BME280;51307;52.162;7.560;2023-11-19T08:54:36;100296.91;;;10.75;85.99
64841;BME280;51307;52.162;7.560;2023-11-19T08:57:02;100282.50;;;10.84;86.39
64841;BME280;51307;52.162;7.560;2023-11-19T08:59:29;100297.69;;;10.52;87.20
64841;BME280;51307;52.162;7.560;2023-11-19T09:01:55;100291.16;;;10.47;87.42
64841;BME280;51307;52.162;7.560;2023-11-19T09:04:22;100302.13;;;10.68;86.86
64841;BME280;51307;52.162;7.560;2023-11-19T09:06:49;100283.97;;;10.55;87.37
64841;BME280;51307;52.162;7.560;2023-11-19T09:09:14;100291.91;;;10.72;86.89
64841;BME280;51307;52.162;7.560;2023-11-19T09:11:40;100285.81;;;10.55;87.86
64841;BME280;51307;52.162;7.560;2023-11-19T09:14:06;100295.00;;;10.36;87.71
64841;BME280;51307;52.162;7.560;2023-11-19T09:16:32;100292.84;;;10.48;87.04
64841;BME280;51307;52.162;7.560;2023-11-19T09:18:57;100291.28;;;10.70;86.72
64841;BME280;51307;52.162;7.560;2023-11-19T09:21:25;100291.41;;;10.76;86.55
64841;BME280;51307;52.162;7.560;2023-11-19T09:23:51;100292.78;;;10.64;86.42
64841;BME280;51307;52.162;7.560;2023-11-19T09:26:16;100294.00;;;10.53;86.59
64841;BME280;51307;52.162;7.560;2023-11-19T09:28:42;100291.41;;;10.76;86.29
64841;BME280;51307;52.162;7.560;2023-11-19T09:31:17;100297.91;;;10.82;86.01
64841;BME280;51307;52.162;7.560;2023-11-19T09:33:43;100288.47;;;10.94;85.92
64841;BME280;51307;52.162;7.560;2023-11-19T09:36:12;100289.88;;;10.82;85.69
64841;BME280;51307;52.162;7.560;2023-11-19T09:38:43;100297.88;;;10.90;85.46
64841;BME280;51307;52.162;7.560;2023-11-19T09:41:09;100290.69;;;10.83;86.00
64841;BME280;51307;52.162;7.560;2023-11-19T09:43:39;100294.97;;;11.00;85.47
64841;BME280;51307;52.162;7.560;2023-11-19T09:46:06;100296.94;;;11.06;84.72
64841;BME280;51307;52.162;7.560;2023-11-19T09:48:35;100294.22;;;11.15;84.89
64841;BME280;51307;52.162;7.560;2023-11-19T09:51:06;100301.44;;;11.14;84.53
64841;BME280;51307;52.162;7.560;2023-11-19T09:53:33;100299.41;;;10.85;85.86
64841;BME280;51307;52.162;7.560;2023-11-19T09:56:00;100293.47;;;11.29;84.77
64841;BME280;51307;52.162;7.560;2023-11-19T09:58:29;100295.22;;;11.14;85.24
64841;BME280;51307;52.162;7.560;2023-11-19T10:00:55;100297.22;;;11.43;83.56
64841;BME280;51307;52.162;7.560;2023-11-19T10:03:22;100305.50;;;11.33;83.97
64841;BME280;51307;52.162;7.560;2023-11-19T10:05:48;100295.47;;;11.27;83.68
64841;BME280;51307;52.162;7.560;2023-11-19T10:08:14;100291.44;;;11.31;83.75
64841;BME280;51307;52.162;7.560;2023-11-19T10:10:40;100288.00;;;11.22;83.93
64841;BME280;51307;52.162;7.560;2023-11-19T10:13:05;100287.50;;;11.42;83.07
64841;BME280;51307;52.162;7.560;2023-11-19T10:15:37;100292.09;;;11.33;82.86
64841;BME280;51307;52.162;7.560;2023-11-19T10:18:03;100290.53;;;11.16;83.13
64841;BME280;51307;52.162;7.560;2023-11-19T10:20:38;100286.84;;;11.17;82.89
64841;BME280;51307;52.162;7.560;2023-11-19T10:23:05;100291.38;;;11.16;83.88
64841;BME280;51307;52.162;7.560;2023-11-19T10:25:33;100290.06;;;11.35;83.18
64841;BME280;51307;52.162;7.560;2023-11-19T10:27:59;100282.84;;;11.13;83.79
64841;BME280;51307;52.162;7.560;2023-11-19T10:30:30;100283.94;;;11.03;83.98
64841;BME280;51307;52.162;7.560;2023-11-19T10:33:11;100278.59;;;10.95;85.34
64841;BME280;51307;52.162;7.560;2023-11-19T10:35:56;100277.47;;;11.21;83.85
64841;BME280;51307;52.162;7.560;2023-11-19T10:38:23;100267.25;;;10.93;84.83
64841;BME280;51307;52.162;7.560;2023-11-19T10:40:49;100267.31;;;11.08;85.09
64841;BME280;51307;52.162;7.560;2023-11-19T10:43:17;100266.19;;;11.02;84.93
64841;BME280;51307;52.162;7.560;2023-11-19T10:45:43;100267.41;;;10.91;86.15
64841;BME280;51307;52.162;7.560;2023-11-19T10:48:09;100278.03;;;10.76;86.09
64841;BME280;51307;52.162;7.560;2023-11-19T10:50:36;100264.16;;;11.04;85.24
64841;BME280;51307;52.162;7.560;2023-11-19T10:53:04;100280.63;;;10.93;85.60
64841;BME280;51307;52.162;7.560;2023-11-19T10:55:34;100279.22;;;11.05;84.35
64841;BME280;51307;52.162;7.560;2023-11-19T11:00:37;100282.72;;;10.74;85.51
64841;BME280;51307;52.162;7.560;2023-11-19T11:03:21;100272.69;;;11.08;84.39
64841;BME280;51307;52.162;7.560;2023-11-19T11:05:51;100282.50;;;10.84;84.48
64841;BME280;51307;52.162;7.560;2023-11-19T11:08:18;100266.63;;;11.14;83.05
64841;BME280;51307;52.162;7.560;2023-11-19T11:10:54;100266.31;;;11.09;83.45
64841;BME280;51307;52.162;7.560;2023-11-19T11:13:23;100264.59;;;11.16;83.04
64841;BME280;51307;52.162;7.560;2023-11-19T11:15:50;100260.09;;;11.08;83.19
64841;BME280;51307;52.162;7.560;2023-11-19T11:18:17;100258.72;;;11.21;82.42
64841;BME280;51307;52.162;7.560;2023-11-19T11:20:47;100256.88;;;11.21;82.65
64841;BME280;51307;52.162;7.560;2023-11-19T11:29:16;100250.91;;;11.34;82.44
64841;BME280;51307;52.162;7.560;2023-11-19T11:32:26;100250.44;;;11.31;82.20
64841;BME280;51307;52.162;7.560;2023-11-19T11:44:57;100257.00;;;11.28;82.68
64841;BME280;51307;52.162;7.560;2023-11-19T11:47:23;100252.75;;;11.57;81.58
64841;BME280;51307;52.162;7.560;2023-11-19T11:49:50;100259.16;;;11.48;81.66
64841;BME280;51307;52.162;7.560;2023-11-19T11:52:17;100263.78;;;11.39;81.59
64841;BME280;51307;52.162;7.560;2023-11-19T11:54:44;100257.03;;;11.43;81.73
64841;BME280;51307;52.162;7.560;2023-11-19T11:57:11;100249.13;;;11.50;81.28
64841;BME280;51307;52.162;7.560;2023-11-19T12:02:11;100242.75;;;11.27;81.87
64841;BME280;51307;52.162;7.560;2023-11-19T12:04:38;100241.31;;;11.17;81.48
64841;BME280;51307;52.162;7.560;2023-11-19T12:07:10;100237.28;;;11.44;81.31
64841;BME280;51307;52.162;7.560;2023-11-19T12:09:40;100236.84;;;11.55;80.79
64841;BME280;51307;52.162;7.560;2023-11-19T12:20:08;100227.53;;;11.66;79.46
64841;BME280;51307;52.162;7.560;2023-11-19T12:22:41;100231.97;;;11.59;79.76
64841;BME280;51307;52.162;7.560;2023-11-19T12:25:09;100220.63;;;11.72;79.24
64841;BME280;51307;52.162;7.560;2023-11-19T12:27:36;100214.44;;;11.71;79.09
64841;BME280;51307;52.162;7.560;2023-11-19T12:30:05;100220.50;;;11.65;79.25
64841;BME280;51307;52.162;7.560;2023-11-19T12:32:40;100220.38;;;11.82;78.95
64841;BME280;51307;52.162;7.560;2023-11-19T12:35:06;100218.84;;;11.87;78.96
64841;BME280;51307;52.162;7.560;2023-11-19T12:37:32;100211.63;;;11.88;79.07
64841;BME280;51307;52.162;7.560;2023-11-19T12:39:58;100203.81;;;11.78;78.41
64841;BME280;51307;52.162;7.560;2023-11-19T12:42:36;100195.97;;;11.76;78.73
64841;BME280;51307;52.162;7.560;2023-11-19T12:45:03;100196.47;;;11.95;78.25
64841;BME280;51307;52.162;7.560;2023-11-19T12:47:29;100186.66;;;11.87;78.63
64841;BME280;51307;52.162;7.560;2023-11-19T12:49:56;100187.75;;;11.78;77.84
64841;BME280;51307;52.162;7.560;2023-11-19T12:52:22;100191.22;;;11.78;77.99
64841;BME280;51307;52.162;7.560;2023-11-19T12:54:49;100188.41;;;11.80;77.59
64841;BME280;51307;52.162;7.560;2023-11-19T12:57:15;100187.63;;;11.71;77.72
64841;BME280;51307;52.162;7.560;2023-11-19T12:59:41;100197.00;;;11.90;77.09
64841;BME280;51307;52.162;7.560;2023-11-19T13:02:06;100189.44;;;11.94;77.43
64841;BME280;51307;52.162;7.560;2023-11-19T13:04:33;100181.88;;;11.98;77.69
64841;BME280;51307;52.162;7.560;2023-11-19T13:07:00;100177.72;;;11.95;76.60
64841;BME280;51307;52.162;7.560;2023-11-19T13:09:27;100182.97;;;11.88;76.66
64841;BME280;51307;52.162;7.560;2023-11-19T13:11:56;100185.09;;;11.93;75.68
64841;BME280;51307;52.162;7.560;2023-11-19T13:14:22;100186.50;;;12.04;75.99
64841;BME280;51307;52.162;7.560;2023-11-19T13:16:48;100191.03;;;12.03;76.66